Terminal Aerodrome Forecast
Issued by NWS Lake Charles, LA

Home | Current Version | Previous Version | Text Only | Print | Product List | Glossary On
Versions: 1 2 3 4 5 6 7 8 9 10 11 12 13 14 15 16 17
414
FTUS44 KLCH 211547 AAA
TAFARA
TAF AMD
KARA 211547Z 2116/2212 VRB05KT P6SM VCSH BKN025
     FM212100 VRB05KT P6SM SCT025
     FM220000 VRB03KT P6SM FEW250=

USA.gov is the U.S. government's official web portal to all federal, state and local government web resources and services.